Time;durP1;ratioP1;P1;durP2;ratioP2;P2;SDS_P1;SDS_P2;PMS_P1;PMS_P2;Temp;Humidity;BMP_temperature;BMP_pressure;BME280_temperature;BME280_humidity;BME280_pressure;Samples;Min_cycle;Max_cycle;Signal;HPM_P1;HPM_P2
2022/11/27 00:01:34;;;;;;;47.20;42.30;;;;;;;2.26;100.00;99114.70;104965;1318;22287;-83
2022/11/27 00:04:04;;;;;;;44.80;39.90;;;;;;;2.29;100.00;99112.91;104715;1329;22948;-83
2022/11/27 00:06:32;;;;;;;44.60;39.90;;;;;;;2.31;100.00;99108.92;104961;1308;22163;-83
2022/11/27 00:09:03;;;;;;;48.10;43.10;;;;;;;2.34;100.00;99114.50;104819;1329;22222;-83
2022/11/27 00:11:31;;;;;;;51.20;45.90;;;;;;;2.33;100.00;99113.70;104975;1315;22226;-84
2022/11/27 00:14:00;;;;;;;49.50;44.10;;;;;;;2.34;100.00;99112.29;104967;1301;22927;-84
2022/11/27 00:16:28;;;;;;;43.10;38.70;;;;;;;2.33;100.00;99111.41;104979;1318;22260;-85
2022/11/27 00:18:57;;;;;;;41.00;36.80;;;;;;;2.26;100.00;99114.16;105046;1320;22123;-86
2022/11/27 00:21:27;;;;;;;44.70;39.90;;;;;;;2.23;100.00;99108.36;104997;1307;22095;-84
2022/11/27 00:23:58;;;;;;;47.80;43.20;;;;;;;2.23;100.00;99101.94;104901;1329;22192;-84
2022/11/27 00:26:27;;;;;;;45.90;41.30;;;;;;;2.27;100.00;99101.87;104849;1329;22226;-85
2022/11/27 00:29:03;;;;;;;45.00;40.30;;;;;;;2.28;100.00;99104.24;104885;1327;22129;-85
2022/11/27 00:31:32;;;;;;;41.90;37.70;;;;;;;2.26;100.00;99100.57;104767;1330;22160;-84
2022/11/27 00:34:04;;;;;;;42.90;38.40;;;;;;;2.25;100.00;99108.23;104557;1325;22230;-84
2022/11/27 00:36:33;;;;;;;43.00;38.50;;;;;;;2.26;100.00;99102.79;105237;1320;22189;-84
2022/11/27 00:39:02;;;;;;;44.20;39.40;;;;;;;2.31;100.00;99104.79;104987;1320;22207;-84
2022/11/27 00:41:30;;;;;;;47.70;42.70;;;;;;;2.35;100.00;99098.79;104978;1320;22243;-85
2022/11/27 00:43:58;;;;;;;50.20;44.90;;;;;;;2.36;100.00;99103.08;104613;1324;22757;-84
2022/11/27 00:46:28;;;;;;;63.90;56.70;;;;;;;2.38;100.00;99105.11;104732;1330;22857;-85
2022/11/27 00:48:59;;;;;;;67.40;54.60;;;;;;;2.40;100.00;99104.32;104533;1330;22290;-83
2022/11/27 00:51:28;;;;;;;57.60;51.10;;;;;;;2.45;100.00;99103.02;104523;1330;22234;-84
2022/11/27 00:53:56;;;;;;;52.10;46.60;;;;;;;2.51;100.00;99102.40;104598;1329;22743;-84
2022/11/27 00:56:34;;;;;;;55.30;49.50;;;;;;;2.53;100.00;99102.55;104728;1322;22195;-84
2022/11/27 00:59:04;;;;;;;55.50;49.80;;;;;;;2.56;100.00;99106.38;104980;1318;22182;-84
2022/11/27 01:01:38;;;;;;;58.60;52.60;;;;;;;2.56;100.00;99104.78;104812;1322;22250;-84
2022/11/27 01:04:10;;;;;;;56.60;50.70;;;;;;;2.59;100.00;99105.69;104613;1330;22230;-84
2022/11/27 01:06:39;;;;;;;53.60;48.10;;;;;;;2.63;100.00;99097.74;104615;1330;22999;-84
2022/11/27 01:09:07;;;;;;;51.20;45.90;;;;;;;2.66;100.00;99102.32;104661;1330;22939;-83
2022/11/27 01:11:36;;;;;;;52.20;46.80;;;;;;;2.69;100.00;99096.19;105243;1319;22320;-84
2022/11/27 01:14:12;;;;;;;51.40;46.10;;;;;;;2.69;100.00;99095.61;104994;1320;22709;-84
2022/11/27 01:16:40;;;;;;;53.30;47.90;;;;;;;2.66;100.00;99094.70;104819;1327;22210;-84
2022/11/27 01:19:12;;;;;;;53.80;48.20;;;;;;;2.63;100.00;99096.69;105233;1320;22224;-84
2022/11/27 01:21:41;;;;;;;51.50;46.20;;;;;;;2.63;100.00;99098.81;105176;1313;22233;-83
2022/11/27 01:24:11;;;;;;;46.20;41.40;;;;;;;2.67;100.00;99099.32;104979;1320;22189;-84
2022/11/27 01:26:39;;;;;;;46.00;41.30;;;;;;;2.69;100.00;99097.08;104752;1330;22222;-84
2022/11/27 01:29:07;;;;;;;42.80;38.60;;;;;;;2.71;100.00;99094.66;104664;1330;22242;-84
2022/11/27 01:31:36;;;;;;;42.80;38.50;;;;;;;2.71;100.00;99093.76;104669;1323;22833;-84
2022/11/27 01:34:07;;;;;;;46.00;41.00;;;;;;;2.70;100.00;99088.77;104639;1330;22282;-85
2022/11/27 01:36:35;;;;;;;45.50;40.60;;;;;;;2.66;100.00;99086.31;105222;1320;22206;-83
2022/11/27 01:39:04;;;;;;;46.20;41.40;;;;;;;2.57;100.00;99086.50;104825;1330;22977;-84
2022/11/27 01:41:38;;;;;;;48.70;43.90;;;;;;;2.54;100.00;99085.80;105126;1320;22226;-84
2022/11/27 01:44:24;;;;;;;;;;;;;;;2.59;100.00;99083.52;105226;1320;22302;-85
2022/11/27 01:47:00;;;;;;;43.80;39.40;;;;;;;2.60;100.00;99085.09;104863;1328;22219;-83
2022/11/27 01:49:41;;;;;;;45.30;40.70;;;;;;;2.60;100.00;99088.73;104853;1328;22754;-84
2022/11/27 01:52:18;;;;;;;44.00;39.70;;;;;;;2.58;100.00;99088.50;105019;1308;22335;-83
2022/11/27 01:54:59;;;;;;;46.50;41.90;;;;;;;2.56;100.00;99086.43;104987;1320;22103;-82
2022/11/27 01:57:39;;;;;;;44.10;39.70;;;;;;;2.52;100.00;99087.48;104774;1329;22299;-82
2022/11/27 02:00:12;;;;;;;42.70;38.60;;;;;;;2.53;100.00;99087.85;104610;1330;22335;-83
2022/11/27 02:02:42;;;;;;;42.30;38.00;;;;;;;2.60;100.00;99092.49;104977;1309;22203;-83
2022/11/27 02:05:14;;;;;;;42.80;38.50;;;;;;;2.67;100.00;99091.98;104790;1329;22166;-83
2022/11/27 02:07:43;;;;;;;45.20;40.60;;;;;;;2.70;100.00;99095.02;104795;1330;22173;-83
2022/11/27 02:10:14;;;;;;;47.90;43.20;;;;;;;2.67;100.00;99089.15;104758;1330;22252;-83
2022/11/27 02:12:59;;;;;;;48.00;43.40;;;;;;;2.62;100.00;99088.47;104946;1316;22217;-82
2022/11/27 02:15:42;;;;;;;45.40;41.00;;;;;;;2.56;100.00;99095.56;105037;1315;22273;-83
2022/11/27 02:18:37;;;;;;;43.20;38.80;;;;;;;2.52;100.00;99097.97;105230;1309;23534;-82
2022/11/27 02:21:20;;;;;;;41.30;37.20;;;;;;;2.54;100.00;99102.05;105221;1320;22265;-83
2022/11/27 02:24:25;;;;;;;40.90;36.90;;;;;;;2.61;100.00;99102.89;104623;1330;22944;-83
2022/11/27 02:26:56;;;;;;;;;;;;;;;2.62;100.00;99101.70;105233;1320;22392;-83
2022/11/27 02:29:29;;;;;;;47.10;42.50;;;;;;;2.59;100.00;99098.84;104735;1330;22195;-82
2022/11/27 02:32:00;;;;;;;48.10;43.10;;;;;;;2.56;100.00;99098.38;104932;1317;22781;-83
2022/11/27 02:34:47;;;;;;;47.80;42.80;;;;;;;2.54;100.00;99099.79;104770;1330;22134;-83
2022/11/27 02:37:25;;;;;;;49.10;44.20;;;;;;;2.52;100.00;99101.80;104837;1328;22244;-83
2022/11/27 02:40:29;;;;;;;51.00;45.90;;;;;;;2.55;100.00;99103.19;104756;1329;22785;-84
2022/11/27 02:43:07;;;;;;;50.10;45.10;;;;;;;2.61;100.00;99105.35;104636;1330;22296;-83
2022/11/27 02:45:41;;;;;;;57.70;52.30;;;;;;;2.64;100.00;99110.81;104851;1325;22268;-83
2022/11/27 02:48:11;;;;;;;55.70;50.20;;;;;;;2.63;100.00;99114.58;104744;1329;22772;-83
2022/11/27 02:50:43;;;;;;;56.60;51.10;;;;;;;2.65;100.00;99112.44;104656;1330;23006;-83
2022/11/27 02:53:19;;;;;;;58.70;52.80;;;;;;;2.67;100.00;99111.51;104866;1330;22874;-83
2022/11/27 02:55:50;;;;;;;60.10;54.30;;;;;;;2.69;100.00;99112.04;105256;1320;22223;-84
2022/11/27 02:58:25;;;;;;;64.80;58.70;;;;;;;2.69;100.00;99113.96;104864;1329;22267;-85
2022/11/27 03:00:55;;;;;;;68.00;61.10;;;;;;;2.71;100.00;99117.70;104838;1329;22234;-84
2022/11/27 03:03:30;;;;;;;91.10;81.70;;;;;;;2.73;100.00;99116.89;104966;1320;22187;-84
2022/11/27 03:06:04;;;;;;;80.80;72.90;;;;;;;2.70;100.00;99115.96;104785;1330;22117;-83
2022/11/27 03:08:54;;;;;;;73.00;65.20;;;;;;;2.67;100.00;99116.35;104962;1312;23028;-83
2022/11/27 03:11:23;;;;;;;63.60;57.20;;;;;;;2.63;99.88;99113.89;104836;1330;22242;-83
2022/11/27 03:13:54;;;;;;;62.40;56.50;;;;;;;2.59;99.95;99115.23;104850;1329;22931;-83
2022/11/27 03:16:25;;;;;;;65.30;59.10;;;;;;;2.58;100.00;99116.67;104725;1329;22227;-83
2022/11/27 03:19:07;;;;;;;61.40;55.40;;;;;;;2.53;100.00;99120.89;105229;1320;22239;-82
2022/11/27 03:21:41;;;;;;;59.10;53.20;;;;;;;2.49;100.00;99121.61;104729;1330;22179;-82
2022/11/27 03:24:10;;;;;;;57.90;52.30;;;;;;;2.48;99.97;99119.61;104611;1330;22233;-83
2022/11/27 03:26:39;;;;;;;55.60;50.20;;;;;;;2.45;99.96;99119.41;104813;1328;23009;-83
2022/11/27 03:29:13;;;;;;;55.10;49.60;;;;;;;2.43;99.98;99121.85;104970;1320;22233;-83
2022/11/27 03:31:42;;;;;;;60.00;54.30;;;;;;;2.42;100.00;99121.70;104947;1313;22259;-83
2022/11/27 03:34:11;;;;;;;52.90;47.50;;;;;;;2.39;100.00;99124.99;105238;1320;22212;-82
2022/11/27 03:36:39;;;;;;;49.50;44.70;;;;;;;2.39;100.00;99119.59;105261;1305;22202;-83
2022/11/27 03:39:07;;;;;;;47.70;42.00;;;;;;;2.42;100.00;99117.72;104838;1320;23271;-83
2022/11/27 03:41:47;;;;;;;46.20;41.60;;;;;;;2.42;99.97;99116.29;104706;1330;22261;-84
2022/11/27 03:44:21;;;;;;;52.00;47.00;;;;;;;2.43;100.00;99117.10;104826;1329;22316;-83
2022/11/27 03:47:16;;;;;;;53.90;48.60;;;;;;;2.45;100.00;99117.70;105252;1320;22735;-83
2022/11/27 03:50:15;;;;;;;56.10;50.60;;;;;;;2.43;100.00;99120.84;105123;1308;22182;-83
2022/11/27 03:53:15;;;;;;;56.10;50.60;;;;;;;2.44;100.00;99119.67;105247;1320;22213;-83
2022/11/27 03:56:05;;;;;;;50.50;45.60;;;;;;;2.47;100.00;99118.51;104816;1330;22241;-84
2022/11/27 03:58:43;;;;;;;44.60;40.30;;;;;;;2.51;100.00;99115.99;104732;1322;23371;-82
2022/11/27 04:01:15;;;;;;;38.00;34.00;;;;;;;2.50;99.97;99116.77;104820;1312;22099;-84
2022/11/27 04:03:43;;;;;;;39.30;35.20;;;;;;;2.47;100.00;99119.05;104825;1329;22189;-84
2022/11/27 04:06:11;;;;;;;41.70;37.50;;;;;;;2.42;100.00;99121.78;105017;1320;23017;-83
2022/11/27 04:08:39;;;;;;;40.20;36.20;;;;;;;2.39;100.00;99125.56;105229;1310;22106;-84
2022/11/27 04:11:07;;;;;;;39.40;35.80;;;;;;;2.39;100.00;99124.05;104703;1315;22165;-84
2022/11/27 04:13:36;;;;;;;39.20;35.60;;;;;;;2.42;100.00;99126.65;104822;1327;22225;-84
2022/11/27 04:16:04;;;;;;;47.00;42.50;;;;;;;2.47;100.00;99129.15;104699;1325;22200;-84
2022/11/27 04:18:32;;;;;;;43.40;39.20;;;;;;;2.49;100.00;99132.53;105257;1319;22206;-84
2022/11/27 04:21:00;;;;;;;46.70;42.10;;;;;;;2.49;100.00;99128.64;104836;1321;22230;-84
2022/11/27 04:23:28;;;;;;;48.60;44.10;;;;;;;2.50;100.00;99126.50;104970;1320;22222;-84
2022/11/27 04:25:56;;;;;;;40.80;37.00;;;;;;;2.53;100.00;99126.59;104717;1315;22178;-83
2022/11/27 04:28:24;;;;;;;43.60;39.50;;;;;;;2.52;100.00;99125.77;104953;1320;22095;-83
2022/11/27 04:30:53;;;;;;;37.90;34.20;;;;;;;2.48;99.98;99122.43;104828;1330;22275;-84
2022/11/27 04:33:22;;;;;;;36.80;33.30;;;;;;;2.45;99.84;99120.16;104830;1329;22178;-84
2022/11/27 04:35:50;;;;;;;58.20;53.30;;;;;;;2.42;99.97;99116.55;104816;1330;22202;-84
2022/11/27 04:38:20;;;;;;;52.10;47.60;;;;;;;2.38;99.91;99110.23;104915;1318;22081;-84
2022/11/27 04:40:51;;;;;;;46.40;41.90;;;;;;;2.31;99.88;99111.70;104821;1330;22293;-84
2022/11/27 04:43:19;;;;;;;36.40;32.80;;;;;;;2.23;99.96;99111.71;104891;1318;22128;-84
2022/11/27 04:45:47;;;;;;;36.50;32.90;;;;;;;2.19;99.95;99112.64;104725;1330;22275;-84
2022/11/27 04:48:15;;;;;;;32.90;29.70;;;;;;;2.19;100.00;99113.13;104579;1330;22281;-83
2022/11/27 04:50:43;;;;;;;36.80;33.20;;;;;;;2.23;100.00;99110.60;104906;1314;22198;-84
2022/11/27 04:53:11;;;;;;;38.00;34.30;;;;;;;2.26;100.00;99109.48;104705;1330;23020;-83
2022/11/27 04:55:39;;;;;;;38.20;34.40;;;;;;;2.23;100.00;99107.67;104727;1330;22228;-84
2022/11/27 04:58:06;;;;;;;31.90;28.60;;;;;;;2.19;100.00;99114.23;104979;1314;23012;-84
2022/11/27 05:00:34;;;;;;;31.40;28.10;;;;;;;2.19;100.00;99117.69;105232;1320;22243;-84
2022/11/27 05:03:02;;;;;;;29.20;26.20;;;;;;;2.18;99.99;99117.19;105261;1320;22093;-84
2022/11/27 05:05:30;;;;;;;29.20;26.20;;;;;;;2.18;99.99;99114.00;104856;1330;22172;-84
2022/11/27 05:07:58;;;;;;;32.40;28.90;;;;;;;2.16;100.00;99115.16;104986;1320;22109;-85
2022/11/27 05:10:26;;;;;;;31.20;28.10;;;;;;;2.15;100.00;99120.11;105274;1320;22245;-84
2022/11/27 05:12:55;;;;;;;31.60;28.50;;;;;;;2.14;100.00;99122.95;105277;1319;22215;-84
2022/11/27 05:15:23;;;;;;;35.20;31.60;;;;;;;2.17;100.00;99118.77;104827;1330;22097;-84
2022/11/27 05:17:50;;;;;;;30.10;27.30;;;;;;;2.20;100.00;99122.41;105238;1306;22239;-84
2022/11/27 05:20:18;;;;;;;30.40;27.50;;;;;;;2.25;100.00;99121.68;104837;1330;22118;-84
2022/11/27 05:22:48;;;;;;;32.30;29.10;;;;;;;2.28;100.00;99120.52;104501;1330;22252;-84
2022/11/27 05:25:16;;;;;;;32.60;29.50;;;;;;;2.26;100.00;99120.70;104691;1330;22323;-84
2022/11/27 05:27:44;;;;;;;30.90;27.70;;;;;;;2.21;100.00;99120.11;105272;1305;22977;-84
2022/11/27 05:30:12;;;;;;;31.60;28.50;;;;;;;2.19;99.98;99119.71;105245;1319;22189;-83
2022/11/27 05:32:40;;;;;;;29.90;26.80;;;;;;;2.20;99.97;99120.20;105284;1318;22889;-84
2022/11/27 05:35:08;;;;;;;29.30;26.50;;;;;;;2.20;100.00;99120.13;104821;1329;22165;-84
2022/11/27 05:37:36;;;;;;;32.00;29.00;;;;;;;2.18;99.96;99120.71;105245;1320;22265;-83
2022/11/27 05:40:05;;;;;;;32.00;28.90;;;;;;;2.18;99.98;99120.14;104850;1329;22283;-84
2022/11/27 05:42:33;;;;;;;31.00;27.90;;;;;;;2.14;100.00;99120.61;104836;1328;22880;-84
2022/11/27 05:45:01;;;;;;;31.10;28.20;;;;;;;2.15;100.00;99118.03;104734;1329;22190;-83
2022/11/27 05:47:29;;;;;;;29.40;26.70;;;;;;;2.21;100.00;99114.67;104840;1330;22799;-84
2022/11/27 05:49:57;;;;;;;31.20;28.40;;;;;;;2.29;100.00;99113.35;104794;1329;22264;-84
2022/11/27 05:52:25;;;;;;;36.40;32.70;;;;;;;2.34;100.00;99109.04;104976;1320;22107;-84
2022/11/27 05:54:55;;;;;;;41.60;36.60;;;;;;;2.33;100.00;99115.34;104772;1330;22249;-84
2022/11/27 05:57:23;;;;;;;43.40;38.90;;;;;;;2.30;100.00;99120.99;105262;1320;22276;-84
2022/11/27 05:59:51;;;;;;;42.20;38.00;;;;;;;2.27;100.00;99120.25;104729;1322;22241;-83
2022/11/27 06:02:19;;;;;;;40.80;37.00;;;;;;;2.27;100.00;99122.29;104980;1312;22095;-84
2022/11/27 06:04:54;;;;;;;40.00;36.20;;;;;;;2.31;100.00;99118.58;104839;1329;22714;-84
2022/11/27 06:07:22;;;;;;;42.30;38.30;;;;;;;2.35;100.00;99121.50;104833;1322;22250;-84
2022/11/27 06:09:50;;;;;;;42.70;38.40;;;;;;;2.37;100.00;99114.08;105269;1320;22112;-82
2022/11/27 06:12:18;;;;;;;43.00;38.90;;;;;;;2.35;100.00;99112.86;104835;1329;22922;-85
2022/11/27 06:14:46;;;;;;;43.70;39.40;;;;;;;2.32;100.00;99111.38;104952;1308;22809;-83
2022/11/27 06:17:15;;;;;;;40.40;36.30;;;;;;;2.28;100.00;99113.48;105282;1320;22160;-84
2022/11/27 06:19:43;;;;;;;40.40;36.40;;;;;;;2.27;99.97;99109.89;105280;1311;22726;-85
2022/11/27 06:22:11;;;;;;;40.70;36.60;;;;;;;2.29;100.00;99102.22;105284;1320;22157;-85
2022/11/27 06:24:39;;;;;;;51.00;46.10;;;;;;;2.33;100.00;99101.50;104968;1307;22261;-87
2022/11/27 06:27:07;;;;;;;47.50;43.20;;;;;;;2.35;100.00;99098.87;105284;1308;22768;-83
2022/11/27 06:29:36;;;;;;;44.90;40.80;;;;;;;2.35;99.99;99103.91;104848;1330;22667;-84
2022/11/27 06:32:05;;;;;;;45.70;41.20;;;;;;;2.33;99.98;99107.69;104729;1324;22737;-85
2022/11/27 06:34:33;;;;;;;49.90;45.10;;;;;;;2.32;100.00;99112.77;104907;1317;22365;-86
2022/11/27 06:37:01;;;;;;;50.00;45.20;;;;;;;2.34;100.00;99112.77;104748;1330;22080;-86
2022/11/27 06:39:29;;;;;;;51.30;46.10;;;;;;;2.37;100.00;99106.23;104615;1330;22931;-85
2022/11/27 06:41:57;;;;;;;52.60;47.60;;;;;;;2.39;100.00;99105.19;104706;1330;22289;-85
2022/11/27 06:44:25;;;;;;;53.10;48.00;;;;;;;2.39;99.99;99109.90;104708;1330;22101;-85
2022/11/27 06:46:53;;;;;;;55.10;50.10;;;;;;;2.33;99.90;99111.61;104969;1311;22104;-85
2022/11/27 06:49:21;;;;;;;51.00;46.20;;;;;;;2.28;100.00;99112.95;105058;1315;22278;-86
2022/11/27 06:51:49;;;;;;;47.80;43.40;;;;;;;2.28;100.00;99111.89;105025;1320;22107;-86
2022/11/27 06:54:17;;;;;;;45.70;41.40;;;;;;;2.30;99.94;99108.33;104897;1328;22255;-85
2022/11/27 06:56:48;;;;;;;40.70;36.80;;;;;;;2.31;99.90;99102.83;104839;1330;22273;-84
2022/11/27 06:59:17;;;;;;;43.00;39.00;;;;;;;2.32;99.95;99100.98;104628;1330;22289;-85
2022/11/27 07:01:45;;;;;;;43.70;39.70;;;;;;;2.33;99.97;99100.33;104616;1330;22177;-85
2022/11/27 07:04:14;;;;;;;46.90;42.50;;;;;;;2.30;100.00;99106.36;104996;1309;22203;-86
2022/11/27 07:06:42;;;;;;;46.90;42.30;;;;;;;2.27;99.99;99107.39;104885;1329;22189;-84
2022/11/27 07:09:10;;;;;;;44.40;40.00;;;;;;;2.27;99.94;99113.70;105292;1311;22078;-85
2022/11/27 07:11:38;;;;;;;46.40;42.20;;;;;;;2.27;99.92;99115.58;105035;1315;22247;-83
2022/11/27 07:14:06;;;;;;;57.30;51.80;;;;;;;2.29;99.99;99115.15;104930;1318;22925;-85
2022/11/27 07:16:35;;;;;;;59.70;54.20;;;;;;;2.31;99.95;99117.73;104870;1328;22342;-85
2022/11/27 07:19:05;;;;;;;64.50;58.50;;;;;;;2.33;99.99;99118.00;104748;1329;22868;-85
2022/11/27 07:21:35;;;;;;;61.40;55.40;;;;;;;2.31;99.97;99120.10;104583;1320;171199;-85
2022/11/27 07:24:03;;;;;;;60.30;54.60;;;;;;;2.31;99.96;99120.79;104599;1330;22259;-85
2022/11/27 07:26:32;;;;;;;54.50;49.00;;;;;;;2.35;100.00;99125.02;104939;1314;22143;-84
2022/11/27 07:29:00;;;;;;;53.50;48.50;;;;;;;2.34;99.72;99121.27;104758;1330;22231;-84
2022/11/27 07:31:29;;;;;;;58.10;52.30;;;;;;;2.28;99.81;99123.92;104895;1320;22301;-84
2022/11/27 07:33:57;;;;;;;57.70;52.10;;;;;;;2.28;100.00;99126.45;104573;1330;22171;-84
2022/11/27 07:36:29;;;;;;;52.60;47.50;;;;;;;2.32;100.00;99129.63;104819;1330;22215;-84
2022/11/27 07:38:58;;;;;;;46.70;42.10;;;;;;;2.34;99.99;99135.46;104914;1320;22820;-85
2022/11/27 07:41:26;;;;;;;48.10;43.30;;;;;;;2.35;99.99;99135.73;104721;1330;22225;-85
2022/11/27 07:44:00;;;;;;;50.30;45.20;;;;;;;2.39;99.96;99136.54;104747;1330;22093;-84
2022/11/27 07:46:29;;;;;;;55.40;50.00;;;;;;;2.43;99.97;99131.05;104967;1323;22123;-85
2022/11/27 07:48:59;;;;;;;55.50;50.30;;;;;;;2.50;100.00;99134.79;104519;1329;23072;-86
2022/11/27 07:51:28;;;;;;;58.40;52.60;;;;;;;2.55;99.98;99139.53;104771;1330;22264;-85
2022/11/27 07:53:56;;;;;;;49.60;44.90;;;;;;;2.56;100.00;99134.25;104613;1330;22177;-85
2022/11/27 07:56:24;;;;;;;47.10;42.70;;;;;;;2.58;100.00;99134.96;104881;1329;22099;-85
2022/11/27 07:58:52;;;;;;;43.40;39.30;;;;;;;2.65;99.98;99130.29;104550;1330;22135;-85
2022/11/27 08:01:21;;;;;;;41.60;37.80;;;;;;;2.69;99.99;99124.77;104627;1315;22171;-85
2022/11/27 08:03:49;;;;;;;43.50;39.60;;;;;;;2.75;100.00;99121.11;104586;1330;22572;-85
2022/11/27 08:06:20;;;;;;;47.80;43.30;;;;;;;2.81;100.00;99120.20;104751;1329;22201;-86
2022/11/27 08:08:49;;;;;;;42.70;38.70;;;;;;;2.85;100.00;99117.34;104975;1314;22685;-85
2022/11/27 08:11:25;;;;;;;34.10;31.00;;;;;;;2.87;100.00;99118.56;104744;1315;22901;-85
2022/11/27 08:13:59;;;;;;;30.10;27.10;;;;;;;2.90;100.00;99120.65;104746;1322;22959;-84
2022/11/27 08:16:28;;;;;;;33.30;30.00;;;;;;;2.92;99.93;99120.64;105256;1314;22048;-85
2022/11/27 08:18:56;;;;;;;32.40;29.30;;;;;;;2.93;99.99;99112.10;105002;1320;22176;-84
2022/11/27 08:21:26;;;;;;;35.80;32.30;;;;;;;2.97;100.00;99108.95;104745;1330;22165;-85
2022/11/27 08:23:56;;;;;;;36.30;33.00;;;;;;;2.98;100.00;99105.27;104652;1330;22259;-86
2022/11/27 08:26:26;;;;;;;36.60;33.30;;;;;;;2.99;100.00;99110.63;104922;1318;22249;-85
2022/11/27 08:28:55;;;;;;;36.70;33.00;;;;;;;3.00;99.97;99114.46;104726;1330;22175;-84
2022/11/27 08:31:24;;;;;;;36.70;33.20;;;;;;;3.04;100.00;99119.05;104529;1330;22111;-85
2022/11/27 08:33:52;;;;;;;39.20;35.70;;;;;;;3.04;99.93;99114.84;104623;1325;22086;-85
2022/11/27 08:36:21;;;;;;;43.00;39.10;;;;;;;3.05;99.98;99118.38;104755;1330;22121;-84
2022/11/27 08:38:49;;;;;;;39.00;35.40;;;;;;;3.05;100.00;99118.70;104757;1324;22155;-86
2022/11/27 08:41:17;;;;;;;37.40;33.90;;;;;;;3.06;100.00;99125.91;104751;1319;23180;-86
2022/11/27 08:43:45;;;;;;;36.70;33.20;;;;;;;3.07;99.99;99129.99;104757;1330;22875;-84
2022/11/27 08:46:13;;;;;;;39.40;35.70;;;;;;;3.10;99.90;99126.94;104616;1325;22284;-86
2022/11/27 08:48:41;;;;;;;44.10;39.90;;;;;;;3.11;99.86;99126.18;104861;1322;23046;-85
2022/11/27 08:51:12;;;;;;;37.50;33.70;;;;;;;3.12;99.88;99125.86;104816;1330;22702;-85
2022/11/27 08:53:43;;;;;;;34.10;30.70;;;;;;;3.10;99.70;99124.65;104842;1328;22213;-85
2022/11/27 08:56:20;;;;;;;34.00;30.60;;;;;;;3.10;99.88;99125.95;104457;1327;22212;-86
2022/11/27 08:58:49;;;;;;;33.50;30.40;;;;;;;3.16;99.87;99128.52;104955;1317;22758;-85
2022/11/27 09:01:24;;;;;;;38.00;34.70;;;;;;;3.20;99.95;99128.52;104613;1330;22906;-85
2022/11/27 09:03:52;;;;;;;35.50;32.10;;;;;;;3.24;99.93;99127.01;104622;1329;22175;-86
2022/11/27 09:06:23;;;;;;;32.40;29.40;;;;;;;3.27;99.99;99129.11;104851;1329;23622;-85
2022/11/27 09:08:51;;;;;;;34.40;31.00;;;;;;;3.28;100.00;99131.01;104837;1321;22227;-86
2022/11/27 09:11:19;;;;;;;32.20;29.00;;;;;;;3.28;99.71;99129.52;105267;1320;22110;-86
2022/11/27 09:13:47;;;;;;;33.00;29.90;;;;;;;3.28;99.92;99127.33;104731;1330;22257;-85
2022/11/27 09:16:18;;;;;;;28.60;26.00;;;;;;;3.34;99.77;99126.86;104843;1329;22221;-85
2022/11/27 09:18:49;;;;;;;28.30;25.80;;;;;;;3.35;99.47;99124.19;104871;1330;22108;-85
2022/11/27 09:21:19;;;;;;;33.20;30.20;;;;;;;3.37;99.78;99123.17;104735;1330;22218;-85
2022/11/27 09:23:47;;;;;;;34.60;31.40;;;;;;;3.40;99.72;99122.40;105116;1320;22271;-85
2022/11/27 09:26:16;;;;;;;33.30;30.40;;;;;;;3.41;99.93;99122.94;104768;1330;23435;-85
2022/11/27 09:28:44;;;;;;;31.40;28.50;;;;;;;3.50;99.98;99126.20;104809;1322;22747;-85
2022/11/27 09:31:14;;;;;;;31.30;28.40;;;;;;;3.57;99.92;99122.09;104784;1330;22227;-86
2022/11/27 09:33:43;;;;;;;33.30;30.20;;;;;;;3.63;99.81;99123.75;104973;1310;22084;-85
2022/11/27 09:36:14;;;;;;;33.60;30.40;;;;;;;3.68;99.75;99118.77;104979;1316;22228;-85
2022/11/27 09:38:43;;;;;;;35.80;32.60;;;;;;;3.69;99.69;99116.05;104833;1330;22106;-85
2022/11/27 09:41:23;;;;;;;39.00;35.50;;;;;;;3.66;99.36;99118.14;104613;1330;22278;-86
2022/11/27 09:44:00;;;;;;;34.80;31.70;;;;;;;3.65;99.35;99114.95;104857;1330;22823;-84
2022/11/27 09:46:38;;;;;;;33.10;30.00;;;;;;;3.65;99.16;99114.59;104945;1320;22791;-83
2022/11/27 09:49:12;;;;;;;34.80;31.50;;;;;;;3.67;99.07;99115.38;105275;1320;22157;-86
2022/11/27 09:51:50;;;;;;;35.90;32.70;;;;;;;3.72;99.27;99115.73;105275;1312;22170;-89
2022/11/27 09:54:34;;;;;;;36.70;33.20;;;;;;;3.71;98.87;99117.99;104827;1330;22289;-87
2022/11/27 09:57:04;;;;;;;36.90;33.50;;;;;;;3.65;98.72;99116.41;104740;1330;22301;-86
2022/11/27 09:59:41;;;;;;;36.10;32.80;;;;;;;3.64;99.42;99112.01;104712;1330;22207;-87
2022/11/27 10:02:16;;;;;;;33.60;30.50;;;;;;;3.66;99.10;99113.87;104929;1315;22873;-87
2022/11/27 10:04:45;;;;;;;35.40;32.20;;;;;;;3.68;99.16;99115.08;104577;1330;22165;-86
2022/11/27 10:07:54;;;;;;;34.30;31.10;;;;;;;3.71;98.89;99110.75;105245;1320;22245;-88
2022/11/27 10:10:48;;;;;;;35.00;31.80;;;;;;;3.76;99.03;99114.09;104829;1330;22115;-87
2022/11/27 10:13:46;;;;;;;30.40;27.50;;;;;;;3.81;99.16;99108.67;104731;1330;22278;-88
2022/11/27 10:16:33;;;;;;;35.80;32.30;;;;;;;3.80;99.02;99104.92;105257;1312;22942;-85
2022/11/27 10:19:20;;;;;;;28.00;25.40;;;;;;;3.75;98.84;99101.48;104959;1323;22223;-88
2022/11/27 10:21:53;;;;;;;28.50;25.70;;;;;;;3.73;98.71;99097.87;104839;1330;22168;-86
2022/11/27 10:24:35;;;;;;;25.80;23.30;;;;;;;3.80;99.14;99093.21;105220;1320;22192;-86
2022/11/27 10:27:17;;;;;;;25.20;22.90;;;;;;;3.89;98.72;99093.08;105250;1320;22174;-87
2022/11/27 10:29:56;;;;;;;24.50;22.00;;;;;;;3.90;98.70;99090.85;104831;1330;22213;-86
2022/11/27 10:32:28;;;;;;;26.60;24.20;;;;;;;3.89;98.35;99086.30;104858;1328;22224;-88
2022/11/27 10:35:26;;;;;;;31.00;28.30;;;;;;;3.92;99.12;99081.58;104916;1321;22110;-87
2022/11/27 10:38:11;;;;;;;29.90;27.20;;;;;;;3.98;98.86;99078.63;104716;1330;22223;-86
2022/11/27 10:40:51;;;;;;;27.60;25.20;;;;;;;4.05;98.50;99076.11;104738;1330;23000;-87
2022/11/27 10:43:21;;;;;;;28.00;25.30;;;;;;;4.09;97.77;99074.93;104945;1316;22413;-88
2022/11/27 10:46:07;;;;;;;27.90;25.40;;;;;;;4.13;97.95;99075.17;104839;1328;22234;-87
2022/11/27 10:48:36;;;;;;;31.50;28.50;;;;;;;4.18;98.03;99071.89;104637;1330;22251;-87
2022/11/27 10:51:14;;;;;;;33.10;29.90;;;;;;;4.24;98.34;99067.78;104556;1330;22216;-86
2022/11/27 10:53:46;;;;;;;34.90;31.60;;;;;;;4.30;98.16;99060.67;104740;1330;22763;-85
2022/11/27 10:56:38;;;;;;;35.00;31.80;;;;;;;4.32;98.14;99060.03;104796;1330;22110;-87
2022/11/27 10:59:12;;;;;;;32.00;28.90;;;;;;;4.34;97.75;99056.55;105242;1312;22256;-87
2022/11/27 11:01:46;;;;;;;31.20;28.10;;;;;;;4.32;97.67;99057.20;104755;1331;22444;-86
2022/11/27 11:04:19;;;;;;;27.20;24.70;;;;;;;4.38;97.34;99060.02;104975;1318;21986;-88
2022/11/27 11:07:26;;;;;;;29.40;26.60;;;;;;;4.42;97.44;99059.21;105287;1318;22497;-85
2022/11/27 11:09:55;;;;;;;30.60;27.80;;;;;;;4.47;97.37;99057.37;105338;1304;22189;-88
2022/11/27 11:12:23;;;;;;;29.90;27.00;;;;;;;4.49;97.37;99060.01;105037;1326;22201;-85
2022/11/27 11:14:55;;;;;;;28.20;25.50;;;;;;;4.50;97.44;99053.95;104771;1330;22763;-87
2022/11/27 11:17:33;;;;;;;26.00;23.60;;;;;;;4.53;97.40;99050.34;105000;1322;22112;-87
2022/11/27 11:20:22;;;;;;;28.10;25.50;;;;;;;4.51;97.14;99048.31;104750;1330;22987;-87
2022/11/27 11:22:50;;;;;;;26.00;23.60;;;;;;;4.54;97.05;99046.62;104985;1322;22192;-85
2022/11/27 11:25:20;;;;;;;25.20;22.90;;;;;;;4.56;96.74;99041.93;104946;1324;22235;-87
2022/11/27 11:27:50;;;;;;;24.30;22.10;;;;;;;4.59;96.21;99040.98;104945;1327;22204;-87
2022/11/27 11:30:24;;;;;;;25.00;22.60;;;;;;;4.59;96.42;99039.59;105322;1318;22222;-88
2022/11/27 11:33:00;;;;;;;23.40;21.20;;;;;;;4.60;96.62;99039.45;104869;1329;22191;-87
2022/11/27 11:35:35;;;;;;;25.00;22.60;;;;;;;4.62;96.75;99035.96;104580;1327;22109;-89
2022/11/27 11:38:11;;;;;;;25.70;23.00;;;;;;;4.65;96.66;99038.30;104770;1333;22356;-88